Tenes, Algeria
Current Conditions -  °F | °C
As of 4:00 AM on Wednesday 28 Jan 2015 (Local Time) from DAOI Reporting Station
Broken Clouds Broken Clouds  
Wind Chill: 46°   Ceiling: 2600
Heat Index: 46°   Visibility: 4mi
Dew Point: 46°   Wind: 0mph
Humidity: 100%   Direction: NA
Pressure: 30.21"   Gusts: NA
Location:  36.51°N, 1.31°E
Report Text: DAOI 280300Z 00000KT 6000 SCT013 BKN026 08/08 Q1023
Loading
Personal Weather Stations






























Interactive Weather Map New forecast layout! Learn more

10-Day Weather Forecast

Advertisements
Track Severe Weather on mobile